sensor_id;sensor_type;location;lat;lon;timestamp;P1;durP1;ratioP1;P2;durP2;ratioP2
69847;SDS011;57143;55.940;37.496;2023-04-25T00:01:08;14.05;;;5.10;;
69847;SDS011;57143;55.940;37.496;2023-04-25T00:03:38;15.65;;;5.20;;
69847;SDS011;57143;55.940;37.496;2023-04-25T00:06:05;13.35;;;4.80;;
69847;SDS011;57143;55.940;37.496;2023-04-25T00:08:33;18.77;;;5.60;;
69847;SDS011;57143;55.940;37.496;2023-04-25T00:11:02;14.75;;;5.43;;
69847;SDS011;57143;55.940;37.496;2023-04-25T00:13:30;15.07;;;5.68;;
69847;SDS011;57143;55.940;37.496;2023-04-25T00:15:57;16.50;;;5.70;;
69847;SDS011;57143;55.940;37.496;2023-04-25T00:18:25;11.45;;;5.57;;
69847;SDS011;57143;55.940;37.496;2023-04-25T00:20:54;15.13;;;5.70;;
69847;SDS011;57143;55.940;37.496;2023-04-25T00:23:21;14.05;;;5.38;;
69847;SDS011;57143;55.940;37.496;2023-04-25T00:25:49;13.20;;;5.88;;
69847;SDS011;57143;55.940;37.496;2023-04-25T00:28:18;15.75;;;5.65;;
69847;SDS011;57143;55.940;37.496;2023-04-25T00:30:45;13.85;;;6.15;;
69847;SDS011;57143;55.940;37.496;2023-04-25T00:33:12;14.07;;;5.17;;
69847;SDS011;57143;55.940;37.496;2023-04-25T00:35:39;13.73;;;5.03;;
69847;SDS011;57143;55.940;37.496;2023-04-25T00:38:08;12.77;;;5.22;;
69847;SDS011;57143;55.940;37.496;2023-04-25T00:40:35;11.75;;;5.30;;
69847;SDS011;57143;55.940;37.496;2023-04-25T00:43:02;13.07;;;5.75;;
69847;SDS011;57143;55.940;37.496;2023-04-25T00:45:32;15.47;;;5.40;;
69847;SDS011;57143;55.940;37.496;2023-04-25T00:48:04;13.50;;;5.22;;
69847;SDS011;57143;55.940;37.496;2023-04-25T00:50:32;12.13;;;4.97;;
69847;SDS011;57143;55.940;37.496;2023-04-25T00:52:59;15.90;;;5.38;;
69847;SDS011;57143;55.940;37.496;2023-04-25T00:55:28;13.43;;;4.45;;
69847;SDS011;57143;55.940;37.496;2023-04-25T00:57:56;12.30;;;4.90;;
69847;SDS011;57143;55.940;37.496;2023-04-25T01:00:24;15.50;;;5.03;;
69847;SDS011;57143;55.940;37.496;2023-04-25T01:02:53;11.00;;;4.43;;
69847;SDS011;57143;55.940;37.496;2023-04-25T01:05:20;15.45;;;4.78;;
69847;SDS011;57143;55.940;37.496;2023-04-25T01:07:47;14.57;;;4.90;;
69847;SDS011;57143;55.940;37.496;2023-04-25T01:10:14;15.57;;;4.90;;
69847;SDS011;57143;55.940;37.496;2023-04-25T01:12:42;18.05;;;5.45;;
69847;SDS011;57143;55.940;37.496;2023-04-25T01:15:09;12.15;;;4.53;;
69847;SDS011;57143;55.940;37.496;2023-04-25T01:17:36;13.43;;;5.43;;
69847;SDS011;57143;55.940;37.496;2023-04-25T01:20:07;12.02;;;4.93;;
69847;SDS011;57143;55.940;37.496;2023-04-25T01:22:37;20.07;;;4.67;;
69847;SDS011;57143;55.940;37.496;2023-04-25T01:25:05;10.98;;;4.45;;
69847;SDS011;57143;55.940;37.496;2023-04-25T01:27:34;11.40;;;4.05;;
69847;SDS011;57143;55.940;37.496;2023-04-25T01:30:02;10.52;;;3.85;;
69847;SDS011;57143;55.940;37.496;2023-04-25T01:32:33;9.45;;;4.43;;
69847;SDS011;57143;55.940;37.496;2023-04-25T01:35:04;9.00;;;4.07;;
69847;SDS011;57143;55.940;37.496;2023-04-25T01:37:34;10.35;;;4.60;;
69847;SDS011;57143;55.940;37.496;2023-04-25T01:40:04;11.85;;;4.50;;
69847;SDS011;57143;55.940;37.496;2023-04-25T01:42:32;12.63;;;4.15;;
69847;SDS011;57143;55.940;37.496;2023-04-25T01:45:00;9.90;;;3.80;;
69847;SDS011;57143;55.940;37.496;2023-04-25T01:47:31;8.33;;;3.43;;
69847;SDS011;57143;55.940;37.496;2023-04-25T01:50:00;9.38;;;3.83;;
69847;SDS011;57143;55.940;37.496;2023-04-25T01:52:29;14.00;;;4.53;;
69847;SDS011;57143;55.940;37.496;2023-04-25T01:54:58;11.75;;;4.18;;
69847;SDS011;57143;55.940;37.496;2023-04-25T01:57:30;16.63;;;4.47;;
69847;SDS011;57143;55.940;37.496;2023-04-25T01:59:58;19.93;;;5.00;;
69847;SDS011;57143;55.940;37.496;2023-04-25T02:02:31;16.50;;;4.93;;
69847;SDS011;57143;55.940;37.496;2023-04-25T02:04:58;11.75;;;5.03;;
69847;SDS011;57143;55.940;37.496;2023-04-25T02:07:26;17.25;;;5.13;;
69847;SDS011;57143;55.940;37.496;2023-04-25T02:09:53;12.57;;;4.97;;
69847;SDS011;57143;55.940;37.496;2023-04-25T02:12:22;13.03;;;5.10;;
69847;SDS011;57143;55.940;37.496;2023-04-25T02:14:51;16.23;;;5.03;;
69847;SDS011;57143;55.940;37.496;2023-04-25T02:17:19;13.88;;;5.55;;
69847;SDS011;57143;55.940;37.496;2023-04-25T02:19:47;11.52;;;4.85;;
69847;SDS011;57143;55.940;37.496;2023-04-25T02:22:15;16.60;;;5.60;;
69847;SDS011;57143;55.940;37.496;2023-04-25T02:24:42;11.53;;;5.03;;
69847;SDS011;57143;55.940;37.496;2023-04-25T02:27:09;17.08;;;5.00;;
69847;SDS011;57143;55.940;37.496;2023-04-25T02:29:38;16.52;;;5.18;;
69847;SDS011;57143;55.940;37.496;2023-04-25T02:32:05;12.80;;;5.07;;
69847;SDS011;57143;55.940;37.496;2023-04-25T02:34:32;12.38;;;4.80;;
69847;SDS011;57143;55.940;37.496;2023-04-25T02:37:00;23.57;;;6.10;;
69847;SDS011;57143;55.940;37.496;2023-04-25T02:39:27;16.60;;;5.05;;
69847;SDS011;57143;55.940;37.496;2023-04-25T02:41:54;14.32;;;5.00;;
69847;SDS011;57143;55.940;37.496;2023-04-25T02:44:21;10.20;;;4.80;;
69847;SDS011;57143;55.940;37.496;2023-04-25T02:46:50;22.38;;;5.20;;
69847;SDS011;57143;55.940;37.496;2023-04-25T02:49:17;16.90;;;4.60;;
69847;SDS011;57143;55.940;37.496;2023-04-25T02:51:44;16.90;;;4.80;;
69847;SDS011;57143;55.940;37.496;2023-04-25T02:54:11;18.95;;;5.20;;
69847;SDS011;57143;55.940;37.496;2023-04-25T02:56:39;11.15;;;4.60;;
69847;SDS011;57143;55.940;37.496;2023-04-25T02:59:06;13.10;;;3.95;;
69847;SDS011;57143;55.940;37.496;2023-04-25T03:01:33;9.20;;;3.27;;
69847;SDS011;57143;55.940;37.496;2023-04-25T03:04:01;11.75;;;3.92;;
69847;SDS011;57143;55.940;37.496;2023-04-25T03:06:29;11.68;;;4.28;;
69847;SDS011;57143;55.940;37.496;2023-04-25T03:08:56;9.73;;;3.92;;
69847;SDS011;57143;55.940;37.496;2023-04-25T03:11:24;11.40;;;4.00;;
69847;SDS011;57143;55.940;37.496;2023-04-25T03:13:52;10.70;;;4.07;;
69847;SDS011;57143;55.940;37.496;2023-04-25T03:16:19;10.07;;;3.85;;
69847;SDS011;57143;55.940;37.496;2023-04-25T03:18:46;9.35;;;3.95;;
69847;SDS011;57143;55.940;37.496;2023-04-25T03:21:16;8.10;;;3.95;;
69847;SDS011;57143;55.940;37.496;2023-04-25T03:23:43;9.48;;;4.03;;
69847;SDS011;57143;55.940;37.496;2023-04-25T03:26:10;12.23;;;3.77;;
69847;SDS011;57143;55.940;37.496;2023-04-25T03:28:38;14.35;;;4.10;;
69847;SDS011;57143;55.940;37.496;2023-04-25T03:31:05;7.40;;;4.38;;
69847;SDS011;57143;55.940;37.496;2023-04-25T03:33:32;12.18;;;3.95;;
69847;SDS011;57143;55.940;37.496;2023-04-25T03:35:59;12.85;;;4.00;;
69847;SDS011;57143;55.940;37.496;2023-04-25T03:38:28;14.33;;;4.27;;
69847;SDS011;57143;55.940;37.496;2023-04-25T03:40:56;10.32;;;4.22;;
69847;SDS011;57143;55.940;37.496;2023-04-25T03:43:23;11.23;;;4.28;;
69847;SDS011;57143;55.940;37.496;2023-04-25T03:45:50;11.45;;;4.20;;
69847;SDS011;57143;55.940;37.496;2023-04-25T03:48:17;10.10;;;4.13;;
69847;SDS011;57143;55.940;37.496;2023-04-25T03:50:46;12.43;;;4.40;;
69847;SDS011;57143;55.940;37.496;2023-04-25T03:53:13;10.02;;;4.03;;
69847;SDS011;57143;55.940;37.496;2023-04-25T03:55:42;12.15;;;4.32;;
69847;SDS011;57143;55.940;37.496;2023-04-25T03:58:09;10.80;;;4.10;;
69847;SDS011;57143;55.940;37.496;2023-04-25T04:00:36;11.60;;;3.85;;
69847;SDS011;57143;55.940;37.496;2023-04-25T04:03:04;11.63;;;4.17;;
69847;SDS011;57143;55.940;37.496;2023-04-25T04:05:31;13.38;;;4.63;;
69847;SDS011;57143;55.940;37.496;2023-04-25T04:07:58;18.85;;;4.68;;
69847;SDS011;57143;55.940;37.496;2023-04-25T04:10:25;11.20;;;4.03;;
69847;SDS011;57143;55.940;37.496;2023-04-25T04:12:54;10.18;;;3.92;;
69847;SDS011;57143;55.940;37.496;2023-04-25T04:15:21;10.77;;;3.90;;
69847;SDS011;57143;55.940;37.496;2023-04-25T04:17:48;12.00;;;4.15;;
69847;SDS011;57143;55.940;37.496;2023-04-25T04:20:16;19.20;;;5.07;;
69847;SDS011;57143;55.940;37.496;2023-04-25T04:22:43;10.75;;;4.38;;
69847;SDS011;57143;55.940;37.496;2023-04-25T04:25:10;14.50;;;4.18;;
69847;SDS011;57143;55.940;37.496;2023-04-25T04:27:38;10.40;;;3.83;;
69847;SDS011;57143;55.940;37.496;2023-04-25T04:30:07;10.60;;;4.40;;
69847;SDS011;57143;55.940;37.496;2023-04-25T04:32:35;12.13;;;4.55;;
69847;SDS011;57143;55.940;37.496;2023-04-25T04:35:03;13.20;;;4.57;;
69847;SDS011;57143;55.940;37.496;2023-04-25T04:37:31;15.02;;;4.35;;
69847;SDS011;57143;55.940;37.496;2023-04-25T04:39:59;14.13;;;4.33;;
69847;SDS011;57143;55.940;37.496;2023-04-25T04:42:31;13.32;;;4.18;;
69847;SDS011;57143;55.940;37.496;2023-04-25T04:44:58;13.45;;;4.18;;
69847;SDS011;57143;55.940;37.496;2023-04-25T04:47:31;12.73;;;4.28;;
69847;SDS011;57143;55.940;37.496;2023-04-25T04:49:59;14.40;;;4.70;;
69847;SDS011;57143;55.940;37.496;2023-04-25T04:52:26;18.67;;;5.63;;
69847;SDS011;57143;55.940;37.496;2023-04-25T04:54:53;16.48;;;6.07;;
69847;SDS011;57143;55.940;37.496;2023-04-25T04:57:20;20.02;;;6.38;;
69847;SDS011;57143;55.940;37.496;2023-04-25T04:59:48;15.23;;;7.45;;
69847;SDS011;57143;55.940;37.496;2023-04-25T05:02:15;19.45;;;7.88;;
69847;SDS011;57143;55.940;37.496;2023-04-25T05:04:44;23.93;;;7.87;;
69847;SDS011;57143;55.940;37.496;2023-04-25T05:07:12;17.33;;;7.57;;
69847;SDS011;57143;55.940;37.496;2023-04-25T05:09:39;17.73;;;7.75;;
69847;SDS011;57143;55.940;37.496;2023-04-25T05:12:07;24.83;;;8.13;;
69847;SDS011;57143;55.940;37.496;2023-04-25T05:14:34;22.23;;;8.13;;
69847;SDS011;57143;55.940;37.496;2023-04-25T05:17:01;20.23;;;7.70;;
69847;SDS011;57143;55.940;37.496;2023-04-25T05:19:31;19.33;;;8.15;;
69847;SDS011;57143;55.940;37.496;2023-04-25T05:22:00;29.33;;;8.48;;
69847;SDS011;57143;55.940;37.496;2023-04-25T05:24:28;20.73;;;8.38;;
69847;SDS011;57143;55.940;37.496;2023-04-25T05:26:55;25.13;;;9.23;;
69847;SDS011;57143;55.940;37.496;2023-04-25T05:29:23;23.93;;;8.53;;
69847;SDS011;57143;55.940;37.496;2023-04-25T05:31:50;20.98;;;8.30;;
69847;SDS011;57143;55.940;37.496;2023-04-25T05:34:18;21.38;;;8.68;;
69847;SDS011;57143;55.940;37.496;2023-04-25T05:36:45;16.00;;;7.47;;
69847;SDS011;57143;55.940;37.496;2023-04-25T05:39:15;19.65;;;7.85;;
69847;SDS011;57143;55.940;37.496;2023-04-25T05:41:43;15.30;;;7.60;;
69847;SDS011;57143;55.940;37.496;2023-04-25T05:44:10;19.83;;;8.20;;
69847;SDS011;57143;55.940;37.496;2023-04-25T05:46:37;19.95;;;8.15;;
69847;SDS011;57143;55.940;37.496;2023-04-25T05:49:04;20.10;;;7.80;;
69847;SDS011;57143;55.940;37.496;2023-04-25T05:51:32;19.92;;;8.13;;
69847;SDS011;57143;55.940;37.496;2023-04-25T05:53:59;18.53;;;7.73;;
69847;SDS011;57143;55.940;37.496;2023-04-25T05:56:28;18.13;;;7.57;;
69847;SDS011;57143;55.940;37.496;2023-04-25T05:58:55;19.45;;;8.15;;
69847;SDS011;57143;55.940;37.496;2023-04-25T06:01:22;21.35;;;7.60;;
69847;SDS011;57143;55.940;37.496;2023-04-25T06:03:49;17.33;;;7.82;;
69847;SDS011;57143;55.940;37.496;2023-04-25T06:06:17;16.60;;;6.77;;
69847;SDS011;57143;55.940;37.496;2023-04-25T06:08:45;15.38;;;6.65;;
69847;SDS011;57143;55.940;37.496;2023-04-25T06:11:12;19.95;;;7.53;;
69847;SDS011;57143;55.940;37.496;2023-04-25T06:13:40;19.55;;;8.23;;
69847;SDS011;57143;55.940;37.496;2023-04-25T06:16:07;13.93;;;7.10;;
69847;SDS011;57143;55.940;37.496;2023-04-25T06:18:35;19.50;;;7.23;;
69847;SDS011;57143;55.940;37.496;2023-04-25T06:21:03;14.93;;;6.55;;
69847;SDS011;57143;55.940;37.496;2023-04-25T06:23:30;21.15;;;6.82;;
69847;SDS011;57143;55.940;37.496;2023-04-25T06:25:57;14.07;;;6.05;;
69847;SDS011;57143;55.940;37.496;2023-04-25T06:28:24;14.40;;;6.38;;
69847;SDS011;57143;55.940;37.496;2023-04-25T06:30:53;15.27;;;6.20;;
69847;SDS011;57143;55.940;37.496;2023-04-25T06:33:20;14.90;;;6.07;;
69847;SDS011;57143;55.940;37.496;2023-04-25T06:35:47;18.38;;;6.50;;
69847;SDS011;57143;55.940;37.496;2023-04-25T06:38:15;18.40;;;5.63;;
69847;SDS011;57143;55.940;37.496;2023-04-25T06:40:42;14.18;;;5.50;;
69847;SDS011;57143;55.940;37.496;2023-04-25T06:43:09;13.37;;;5.47;;
69847;SDS011;57143;55.940;37.496;2023-04-25T06:45:37;19.50;;;6.03;;
69847;SDS011;57143;55.940;37.496;2023-04-25T06:48:05;16.08;;;5.95;;
69847;SDS011;57143;55.940;37.496;2023-04-25T06:50:33;14.55;;;6.22;;
69847;SDS011;57143;55.940;37.496;2023-04-25T06:53:00;10.73;;;5.18;;
69847;SDS011;57143;55.940;37.496;2023-04-25T06:55:28;14.97;;;5.00;;
69847;SDS011;57143;55.940;37.496;2023-04-25T06:57:55;13.52;;;4.82;;
69847;SDS011;57143;55.940;37.496;2023-04-25T07:00:22;11.13;;;4.70;;
69847;SDS011;57143;55.940;37.496;2023-04-25T07:02:50;12.13;;;5.07;;
69847;SDS011;57143;55.940;37.496;2023-04-25T07:05:21;15.00;;;5.47;;
69847;SDS011;57143;55.940;37.496;2023-04-25T07:07:48;13.03;;;5.90;;
69847;SDS011;57143;55.940;37.496;2023-04-25T07:10:15;14.15;;;5.63;;
69847;SDS011;57143;55.940;37.496;2023-04-25T07:12:43;9.90;;;4.85;;
69847;SDS011;57143;55.940;37.496;2023-04-25T07:15:10;17.55;;;4.97;;
69847;SDS011;57143;55.940;37.496;2023-04-25T07:17:37;14.05;;;5.15;;
69847;SDS011;57143;55.940;37.496;2023-04-25T07:20:05;10.80;;;4.90;;
69847;SDS011;57143;55.940;37.496;2023-04-25T07:22:36;9.93;;;4.40;;
69847;SDS011;57143;55.940;37.496;2023-04-25T07:25:03;9.95;;;4.25;;
69847;SDS011;57143;55.940;37.496;2023-04-25T07:27:32;10.98;;;4.90;;
69847;SDS011;57143;55.940;37.496;2023-04-25T07:29:59;9.02;;;3.45;;
69847;SDS011;57143;55.940;37.496;2023-04-25T07:32:26;8.40;;;4.10;;
69847;SDS011;57143;55.940;37.496;2023-04-25T07:34:53;11.82;;;4.72;;
69847;SDS011;57143;55.940;37.496;2023-04-25T07:37:21;8.57;;;4.78;;
69847;SDS011;57143;55.940;37.496;2023-04-25T07:39:49;16.88;;;4.85;;
69847;SDS011;57143;55.940;37.496;2023-04-25T07:42:17;10.65;;;5.70;;
69847;SDS011;57143;55.940;37.496;2023-04-25T07:44:44;13.10;;;4.70;;
69847;SDS011;57143;55.940;37.496;2023-04-25T07:47:12;11.38;;;5.25;;
69847;SDS011;57143;55.940;37.496;2023-04-25T07:49:39;11.38;;;5.50;;
69847;SDS011;57143;55.940;37.496;2023-04-25T07:52:06;9.40;;;4.28;;
69847;SDS011;57143;55.940;37.496;2023-04-25T07:54:34;11.15;;;4.40;;
69847;SDS011;57143;55.940;37.496;2023-04-25T07:57:02;13.27;;;4.03;;
69847;SDS011;57143;55.940;37.496;2023-04-25T07:59:31;14.20;;;4.82;;
69847;SDS011;57143;55.940;37.496;2023-04-25T08:01:58;10.20;;;4.72;;
69847;SDS011;57143;55.940;37.496;2023-04-25T08:04:26;9.30;;;4.63;;
69847;SDS011;57143;55.940;37.496;2023-04-25T08:06:54;10.75;;;5.00;;
69847;SDS011;57143;55.940;37.496;2023-04-25T08:09:21;11.73;;;5.20;;
69847;SDS011;57143;55.940;37.496;2023-04-25T08:11:48;13.65;;;5.10;;
69847;SDS011;57143;55.940;37.496;2023-04-25T08:14:17;11.60;;;5.20;;
69847;SDS011;57143;55.940;37.496;2023-04-25T08:16:44;9.80;;;4.72;;
69847;SDS011;57143;55.940;37.496;2023-04-25T08:19:11;12.95;;;4.85;;
69847;SDS011;57143;55.940;37.496;2023-04-25T08:21:39;13.23;;;5.30;;
69847;SDS011;57143;55.940;37.496;2023-04-25T08:24:06;11.48;;;5.22;;
69847;SDS011;57143;55.940;37.496;2023-04-25T08:26:33;9.63;;;5.45;;
69847;SDS011;57143;55.940;37.496;2023-04-25T08:29:02;12.05;;;4.50;;
69847;SDS011;57143;55.940;37.496;2023-04-25T08:31:31;9.52;;;4.25;;
69847;SDS011;57143;55.940;37.496;2023-04-25T08:33:58;10.47;;;4.73;;
69847;SDS011;57143;55.940;37.496;2023-04-25T08:36:25;14.32;;;4.80;;
69847;SDS011;57143;55.940;37.496;2023-04-25T08:38:53;10.23;;;4.25;;
69847;SDS011;57143;55.940;37.496;2023-04-25T08:41:20;11.52;;;4.68;;
69847;SDS011;57143;55.940;37.496;2023-04-25T08:43:48;12.85;;;4.88;;
69847;SDS011;57143;55.940;37.496;2023-04-25T08:46:18;13.93;;;4.30;;
69847;SDS011;57143;55.940;37.496;2023-04-25T08:48:47;10.18;;;4.15;;
69847;SDS011;57143;55.940;37.496;2023-04-25T08:51:19;11.55;;;4.20;;
69847;SDS011;57143;55.940;37.496;2023-04-25T08:53:50;8.80;;;3.95;;
69847;SDS011;57143;55.940;37.496;2023-04-25T08:56:18;10.75;;;4.03;;
69847;SDS011;57143;55.940;37.496;2023-04-25T08:58:48;8.70;;;4.23;;
69847;SDS011;57143;55.940;37.496;2023-04-25T09:01:16;13.75;;;4.53;;
69847;SDS011;57143;55.940;37.496;2023-04-25T09:03:44;11.32;;;4.75;;
69847;SDS011;57143;55.940;37.496;2023-04-25T09:06:13;17.58;;;4.75;;
69847;SDS011;57143;55.940;37.496;2023-04-25T09:08:41;14.43;;;5.18;;
69847;SDS011;57143;55.940;37.496;2023-04-25T09:11:08;9.03;;;4.57;;
69847;SDS011;57143;55.940;37.496;2023-04-25T09:13:36;12.38;;;4.25;;
69847;SDS011;57143;55.940;37.496;2023-04-25T09:16:03;7.75;;;3.97;;
69847;SDS011;57143;55.940;37.496;2023-04-25T09:18:32;10.85;;;4.72;;
69847;SDS011;57143;55.940;37.496;2023-04-25T09:21:04;12.30;;;4.40;;
69847;SDS011;57143;55.940;37.496;2023-04-25T09:23:40;11.03;;;4.50;;
69847;SDS011;57143;55.940;37.496;2023-04-25T09:26:08;12.15;;;4.55;;
69847;SDS011;57143;55.940;37.496;2023-04-25T09:28:35;8.60;;;4.10;;
69847;SDS011;57143;55.940;37.496;2023-04-25T09:31:03;11.75;;;4.70;;
69847;SDS011;57143;55.940;37.496;2023-04-25T09:33:31;8.98;;;4.50;;
69847;SDS011;57143;55.940;37.496;2023-04-25T09:36:03;10.87;;;3.70;;
69847;SDS011;57143;55.940;37.496;2023-04-25T09:38:32;7.72;;;3.55;;
69847;SDS011;57143;55.940;37.496;2023-04-25T09:41:08;9.40;;;3.60;;
69847;SDS011;57143;55.940;37.496;2023-04-25T09:43:36;13.10;;;3.67;;
69847;SDS011;57143;55.940;37.496;2023-04-25T09:46:07;9.05;;;3.83;;
69847;SDS011;57143;55.940;37.496;2023-04-25T09:48:36;8.23;;;3.50;;
69847;SDS011;57143;55.940;37.496;2023-04-25T09:51:04;8.13;;;3.50;;
69847;SDS011;57143;55.940;37.496;2023-04-25T09:53:33;8.65;;;3.60;;
69847;SDS011;57143;55.940;37.496;2023-04-25T09:56:02;8.43;;;3.55;;
69847;SDS011;57143;55.940;37.496;2023-04-25T09:58:33;8.15;;;3.03;;
69847;SDS011;57143;55.940;37.496;2023-04-25T10:01:02;10.40;;;3.33;;
69847;SDS011;57143;55.940;37.496;2023-04-25T10:03:31;10.10;;;4.40;;
69847;SDS011;57143;55.940;37.496;2023-04-25T10:06:01;8.23;;;4.00;;
69847;SDS011;57143;55.940;37.496;2023-04-25T10:08:31;10.00;;;4.10;;
69847;SDS011;57143;55.940;37.496;2023-04-25T10:11:00;8.65;;;3.50;;
69847;SDS011;57143;55.940;37.496;2023-04-25T10:13:28;9.57;;;3.50;;
69847;SDS011;57143;55.940;37.496;2023-04-25T10:15:58;8.93;;;3.55;;
69847;SDS011;57143;55.940;37.496;2023-04-25T10:18:27;9.15;;;3.58;;
69847;SDS011;57143;55.940;37.496;2023-04-25T10:20:55;7.90;;;2.80;;
69847;SDS011;57143;55.940;37.496;2023-04-25T10:23:24;8.27;;;3.13;;
69847;SDS011;57143;55.940;37.496;2023-04-25T10:25:53;9.30;;;3.10;;
69847;SDS011;57143;55.940;37.496;2023-04-25T10:28:20;9.57;;;3.47;;
69847;SDS011;57143;55.940;37.496;2023-04-25T10:30:59;12.82;;;4.15;;
69847;SDS011;57143;55.940;37.496;2023-04-25T10:33:32;8.68;;;3.25;;
69847;SDS011;57143;55.940;37.496;2023-04-25T10:36:08;14.45;;;3.53;;
69847;SDS011;57143;55.940;37.496;2023-04-25T10:38:36;11.90;;;4.43;;
69847;SDS011;57143;55.940;37.496;2023-04-25T10:41:04;7.55;;;3.15;;
69847;SDS011;57143;55.940;37.496;2023-04-25T10:43:34;7.07;;;3.10;;
69847;SDS011;57143;55.940;37.496;2023-04-25T10:46:04;7.97;;;2.97;;
69847;SDS011;57143;55.940;37.496;2023-04-25T10:48:43;8.80;;;2.55;;
69847;SDS011;57143;55.940;37.496;2023-04-25T10:51:16;9.03;;;3.33;;
69847;SDS011;57143;55.940;37.496;2023-04-25T10:53:44;7.25;;;2.58;;
69847;SDS011;57143;55.940;37.496;2023-04-25T10:56:16;9.23;;;3.17;;
69847;SDS011;57143;55.940;37.496;2023-04-25T10:58:44;6.15;;;2.45;;
69847;SDS011;57143;55.940;37.496;2023-04-25T11:01:13;7.10;;;2.60;;
69847;SDS011;57143;55.940;37.496;2023-04-25T11:03:41;6.77;;;2.60;;
69847;SDS011;57143;55.940;37.496;2023-04-25T11:06:11;6.93;;;2.50;;
69847;SDS011;57143;55.940;37.496;2023-04-25T11:08:47;8.82;;;3.20;;
69847;SDS011;57143;55.940;37.496;2023-04-25T11:11:16;9.73;;;2.88;;
69847;SDS011;57143;55.940;37.496;2023-04-25T11:13:44;7.57;;;2.45;;
69847;SDS011;57143;55.940;37.496;2023-04-25T11:16:16;10.83;;;2.97;;
69847;SDS011;57143;55.940;37.496;2023-04-25T11:18:43;10.55;;;2.88;;
69847;SDS011;57143;55.940;37.496;2023-04-25T11:21:11;8.50;;;2.78;;
69847;SDS011;57143;55.940;37.496;2023-04-25T11:23:38;9.30;;;3.30;;
69847;SDS011;57143;55.940;37.496;2023-04-25T11:26:06;8.85;;;2.70;;
69847;SDS011;57143;55.940;37.496;2023-04-25T11:28:33;9.97;;;2.40;;
69847;SDS011;57143;55.940;37.496;2023-04-25T11:31:02;5.90;;;2.10;;
69847;SDS011;57143;55.940;37.496;2023-04-25T11:33:32;8.27;;;2.83;;
69847;SDS011;57143;55.940;37.496;2023-04-25T11:35:59;7.40;;;2.63;;
69847;SDS011;57143;55.940;37.496;2023-04-25T11:38:27;7.03;;;2.38;;
69847;SDS011;57143;55.940;37.496;2023-04-25T11:40:54;7.87;;;2.70;;
69847;SDS011;57143;55.940;37.496;2023-04-25T11:43:21;9.05;;;3.00;;
69847;SDS011;57143;55.940;37.496;2023-04-25T11:45:49;8.77;;;2.92;;
69847;SDS011;57143;55.940;37.496;2023-04-25T11:48:17;6.55;;;2.47;;
69847;SDS011;57143;55.940;37.496;2023-04-25T11:50:47;7.78;;;2.50;;
69847;SDS011;57143;55.940;37.496;2023-04-25T11:53:14;7.67;;;3.10;;
69847;SDS011;57143;55.940;37.496;2023-04-25T11:55:44;8.38;;;2.92;;
69847;SDS011;57143;55.940;37.496;2023-04-25T11:58:11;7.65;;;3.00;;
69847;SDS011;57143;55.940;37.496;2023-04-25T12:00:41;7.13;;;2.60;;
69847;SDS011;57143;55.940;37.496;2023-04-25T12:03:08;11.32;;;2.80;;
69847;SDS011;57143;55.940;37.496;2023-04-25T12:05:36;7.97;;;2.80;;
69847;SDS011;57143;55.940;37.496;2023-04-25T12:08:12;9.88;;;2.80;;
69847;SDS011;57143;55.940;37.496;2023-04-25T12:10:40;7.53;;;2.45;;
69847;SDS011;57143;55.940;37.496;2023-04-25T12:13:19;6.35;;;2.13;;
69847;SDS011;57143;55.940;37.496;2023-04-25T12:15:47;6.13;;;1.98;;
69847;SDS011;57143;55.940;37.496;2023-04-25T12:18:15;7.93;;;2.33;;
69847;SDS011;57143;55.940;37.496;2023-04-25T12:20:46;7.20;;;2.55;;
69847;SDS011;57143;55.940;37.496;2023-04-25T12:23:14;7.15;;;2.60;;
69847;SDS011;57143;55.940;37.496;2023-04-25T12:25:42;7.40;;;2.88;;
69847;SDS011;57143;55.940;37.496;2023-04-25T12:28:13;9.40;;;2.60;;
69847;SDS011;57143;55.940;37.496;2023-04-25T12:30:57;7.33;;;2.60;;
69847;SDS011;57143;55.940;37.496;2023-04-25T12:33:26;8.50;;;2.90;;
69847;SDS011;57143;55.940;37.496;2023-04-25T12:35:55;7.30;;;2.55;;
69847;SDS011;57143;55.940;37.496;2023-04-25T12:38:25;8.70;;;2.63;;
69847;SDS011;57143;55.940;37.496;2023-04-25T12:40:53;7.55;;;2.70;;
69847;SDS011;57143;55.940;37.496;2023-04-25T12:43:20;5.90;;;2.30;;
69847;SDS011;57143;55.940;37.496;2023-04-25T12:45:48;8.15;;;2.40;;
69847;SDS011;57143;55.940;37.496;2023-04-25T12:48:16;8.90;;;2.75;;
69847;SDS011;57143;55.940;37.496;2023-04-25T12:50:44;9.30;;;2.60;;
69847;SDS011;57143;55.940;37.496;2023-04-25T12:53:14;8.52;;;2.60;;
69847;SDS011;57143;55.940;37.496;2023-04-25T12:55:43;5.87;;;2.40;;
69847;SDS011;57143;55.940;37.496;2023-04-25T12:58:11;10.35;;;2.58;;
69847;SDS011;57143;55.940;37.496;2023-04-25T13:00:38;9.50;;;2.70;;
69847;SDS011;57143;55.940;37.496;2023-04-25T13:03:06;8.27;;;2.78;;
69847;SDS011;57143;55.940;37.496;2023-04-25T13:05:33;9.43;;;3.05;;
69847;SDS011;57143;55.940;37.496;2023-04-25T13:08:01;7.67;;;2.70;;
69847;SDS011;57143;55.940;37.496;2023-04-25T13:10:28;7.60;;;2.40;;
69847;SDS011;57143;55.940;37.496;2023-04-25T13:12:57;6.53;;;2.85;;
69847;SDS011;57143;55.940;37.496;2023-04-25T13:15:24;10.13;;;2.63;;
69847;SDS011;57143;55.940;37.496;2023-04-25T13:17:54;8.95;;;2.47;;
69847;SDS011;57143;55.940;37.496;2023-04-25T13:20:21;8.03;;;2.77;;
69847;SDS011;57143;55.940;37.496;2023-04-25T13:22:48;6.30;;;2.35;;
69847;SDS011;57143;55.940;37.496;2023-04-25T13:25:15;11.05;;;2.95;;
69847;SDS011;57143;55.940;37.496;2023-04-25T13:27:44;6.80;;;2.15;;
69847;SDS011;57143;55.940;37.496;2023-04-25T13:30:13;6.47;;;2.45;;
69847;SDS011;57143;55.940;37.496;2023-04-25T13:32:43;7.83;;;2.40;;
69847;SDS011;57143;55.940;37.496;2023-04-25T13:35:11;9.35;;;2.70;;
69847;SDS011;57143;55.940;37.496;2023-04-25T13:37:39;6.57;;;2.67;;
69847;SDS011;57143;55.940;37.496;2023-04-25T13:40:07;7.93;;;2.70;;
69847;SDS011;57143;55.940;37.496;2023-04-25T13:42:36;7.68;;;2.70;;
69847;SDS011;57143;55.940;37.496;2023-04-25T13:45:05;7.77;;;2.80;;
69847;SDS011;57143;55.940;37.496;2023-04-25T13:47:35;6.70;;;2.63;;
69847;SDS011;57143;55.940;37.496;2023-04-25T13:50:03;7.95;;;3.10;;
69847;SDS011;57143;55.940;37.496;2023-04-25T13:52:32;6.35;;;2.55;;
69847;SDS011;57143;55.940;37.496;2023-04-25T13:55:00;12.20;;;3.38;;
69847;SDS011;57143;55.940;37.496;2023-04-25T13:57:30;10.63;;;3.40;;
69847;SDS011;57143;55.940;37.496;2023-04-25T13:59:58;7.38;;;3.40;;
69847;SDS011;57143;55.940;37.496;2023-04-25T14:02:30;8.32;;;3.17;;
69847;SDS011;57143;55.940;37.496;2023-04-25T14:04:59;12.38;;;3.47;;
69847;SDS011;57143;55.940;37.496;2023-04-25T14:07:26;8.75;;;3.30;;
69847;SDS011;57143;55.940;37.496;2023-04-25T14:09:53;13.10;;;3.23;;
69847;SDS011;57143;55.940;37.496;2023-04-25T14:12:22;8.68;;;3.63;;
69847;SDS011;57143;55.940;37.496;2023-04-25T14:14:50;7.82;;;3.25;;
69847;SDS011;57143;55.940;37.496;2023-04-25T14:17:17;6.82;;;3.03;;
69847;SDS011;57143;55.940;37.496;2023-04-25T14:19:45;12.27;;;3.50;;
69847;SDS011;57143;55.940;37.496;2023-04-25T14:22:15;10.70;;;3.40;;
69847;SDS011;57143;55.940;37.496;2023-04-25T14:24:42;10.43;;;3.22;;
69847;SDS011;57143;55.940;37.496;2023-04-25T14:27:09;7.13;;;2.78;;
69847;SDS011;57143;55.940;37.496;2023-04-25T14:29:40;6.82;;;2.85;;
69847;SDS011;57143;55.940;37.496;2023-04-25T14:32:07;9.05;;;2.95;;